Time;durP1;ratioP1;P1;durP2;ratioP2;P2;SDS_P1;SDS_P2;PMS_P1;PMS_P2;Temp;Humidity;BMP_temperature;BMP_pressure;BME280_temperature;BME280_humidity;BME280_pressure;Samples;Min_cycle;Max_cycle;Signal;HPM_P1;HPM_P2
2022/05/18 00:01:22;;;;;;;4.80;2.97;;;;;;;17.37;66.83;99610.81;4470302;32;33457;-70
2022/05/18 00:03:52;;;;;;;5.37;3.55;;;;;;;17.16;67.89;99610.63;4467619;32;33898;-71
2022/05/18 00:06:20;;;;;;;3.65;2.72;;;;;;;17.65;66.40;99615.09;4461545;32;34958;-70
2022/05/18 00:08:48;;;;;;;4.25;2.78;;;;;;;17.59;66.05;99614.44;4455820;32;34380;-70
2022/05/18 00:11:18;;;;;;;5.80;3.30;;;;;;;16.90;69.23;99611.47;4457169;32;34163;-70
2022/05/18 00:13:47;;;;;;;5.00;3.28;;;;;;;16.93;69.21;99613.16;4455871;32;34779;-70
2022/05/18 00:16:16;;;;;;;10.93;3.35;;;;;;;17.01;70.43;99616.38;4470977;32;35030;-70
2022/05/18 00:18:45;;;;;;;4.53;3.30;;;;;;;17.02;71.30;99620.75;4469739;32;35764;-70
2022/05/18 00:21:14;;;;;;;8.20;3.67;;;;;;;17.08;70.06;99623.16;4470967;32;33787;-71
2022/05/18 00:23:42;;;;;;;8.35;3.60;;;;;;;17.02;69.92;99620.75;4455650;32;34574;-70
2022/05/18 00:26:10;;;;;;;6.32;3.12;;;;;;;17.23;69.64;99627.06;4444894;32;35868;-70
2022/05/18 00:28:38;;;;;;;6.90;3.42;;;;;;;17.32;69.48;99623.28;4440821;32;35283;-70
2022/05/18 00:31:06;;;;;;;5.80;3.33;;;;;;;17.04;70.03;99627.66;4455230;32;33389;-70
2022/05/18 00:33:34;;;;;;;4.12;2.92;;;;;;;16.96;70.59;99621.81;4464939;32;33990;-70
2022/05/18 00:36:02;;;;;;;6.53;3.80;;;;;;;17.19;69.10;99623.69;4462381;32;34996;-70
2022/05/18 00:38:31;;;;;;;6.12;2.87;;;;;;;17.36;68.25;99630.16;4464212;32;34428;-70
2022/05/18 00:40:59;;;;;;;14.13;3.50;;;;;;;17.17;68.20;99627.25;4452456;32;33516;-70
2022/05/18 00:43:30;;;;;;;6.07;3.03;;;;;;;16.85;70.86;99632.69;4437085;32;34012;-70
2022/05/18 00:45:59;;;;;;;6.57;3.22;;;;;;;17.44;67.53;99636.03;4470875;32;35027;-70
2022/05/18 00:48:27;;;;;;;5.05;2.90;;;;;;;17.78;64.56;99634.84;4469617;32;34548;-70
2022/05/18 00:50:59;;;;;;;6.85;2.85;;;;;;;17.97;63.53;99635.94;4462773;32;34094;-71
2022/05/18 00:53:30;;;;;;;5.20;3.00;;;;;;;18.06;62.44;99644.41;4455477;32;34028;-70
2022/05/18 00:56:04;;;;;;;5.55;2.50;;;;;;;18.02;60.66;99637.53;4470759;32;35036;-70
2022/05/18 00:58:51;;;;;;;4.03;2.72;;;;;;;17.93;60.32;99644.88;4463274;32;34556;-70
2022/05/18 01:01:19;;;;;;;6.03;2.40;;;;;;;17.66;59.98;99648.44;4456874;32;33459;-70
2022/05/18 01:03:50;;;;;;;5.57;2.35;;;;;;;17.79;59.40;99653.22;4469089;32;33871;-70
2022/05/18 01:06:32;;;;;;;5.22;2.72;;;;;;;17.40;59.97;99651.06;4450086;32;35940;-70
2022/05/18 01:09:07;;;;;;;5.05;2.45;;;;;;;17.40;59.92;99656.31;4436892;32;34458;-70
2022/05/18 01:11:39;;;;;;;4.10;2.45;;;;;;;17.92;58.49;99658.94;4441314;32;34501;-70
2022/05/18 01:14:12;;;;;;;4.35;2.75;;;;;;;17.26;61.54;99658.56;4466734;32;33804;-70
2022/05/18 01:16:40;;;;;;;5.25;2.72;;;;;;;17.31;62.00;99661.03;4470969;32;35855;-70
2022/05/18 01:19:21;;;;;;;4.82;2.55;;;;;;;17.63;61.45;99668.72;4455131;32;34570;-70
2022/05/18 01:21:59;;;;;;;4.47;2.83;;;;;;;17.59;61.47;99668.84;4452945;32;33496;-70
2022/05/18 01:24:33;;;;;;;7.50;3.42;;;;;;;17.34;63.35;99666.19;4455411;32;34850;-70
2022/05/18 01:27:02;;;;;;;6.93;3.25;;;;;;;17.48;63.71;99676.25;4469580;32;34989;-70
2022/05/18 01:29:31;;;;;;;6.53;3.60;;;;;;;17.52;63.89;99665.56;4468188;32;33928;-70
2022/05/18 01:32:02;;;;;;;5.97;3.53;;;;;;;17.03;65.91;99669.84;4470730;32;34355;-70
2022/05/18 01:34:35;;;;;;;6.35;3.70;;;;;;;17.42;64.45;99669.44;4455314;32;33280;-70
2022/05/18 01:37:03;;;;;;;5.68;3.75;;;;;;;16.63;67.85;99660.53;4470677;32;35058;-70
2022/05/18 01:39:45;;;;;;;6.30;3.87;;;;;;;16.64;67.86;99672.75;4467517;32;34529;-70
2022/05/18 01:42:30;;;;;;;8.82;4.07;;;;;;;16.84;68.26;99666.94;4454471;32;32983;-70
2022/05/18 01:44:58;;;;;;;6.47;4.10;;;;;;;16.86;69.04;99673.84;4454293;32;34093;-70
2022/05/18 01:47:32;;;;;;;6.62;3.85;;;;;;;17.26;68.02;99674.34;4453513;32;35012;-70
2022/05/18 01:50:02;;;;;;;8.05;4.32;;;;;;;17.39;67.60;99674.81;4456546;32;34450;-70
2022/05/18 01:52:32;;;;;;;9.45;4.60;;;;;;;16.37;72.28;99677.91;4454038;32;33408;-70
2022/05/18 01:55:01;;;;;;;9.88;4.32;;;;;;;16.10;73.79;99677.81;4452202;32;34772;-70
2022/05/18 01:57:29;;;;;;;7.37;4.12;;;;;;;16.26;73.19;99687.87;4454454;32;35053;-70
2022/05/18 01:59:56;;;;;;;8.70;4.12;;;;;;;16.24;73.35;99684.44;4468728;32;35260;-70
2022/05/18 02:02:25;;;;;;;6.22;4.15;;;;;;;16.42;72.12;99689.16;4453419;32;33401;-70
2022/05/18 02:04:53;;;;;;;7.97;3.97;;;;;;;15.97;73.76;99705.31;4454709;32;33929;-70
2022/05/18 02:07:21;;;;;;;6.70;4.37;;;;;;;16.54;71.31;99703.72;4454568;32;34920;-70
2022/05/18 02:09:49;;;;;;;6.62;4.20;;;;;;;16.55;70.57;99707.19;4460336;32;35806;-81
2022/05/18 02:12:19;;;;;;;6.00;4.07;;;;;;;16.08;72.41;99718.16;4454338;32;33582;-69
2022/05/18 02:14:47;;;;;;;8.00;4.60;;;;;;;16.19;71.24;99716.09;4468565;32;31756;-70
2022/05/18 02:17:15;;;;;;;7.07;4.72;;;;;;;15.55;73.66;99719.50;4453194;32;35163;-70
2022/05/18 02:19:43;;;;;;;6.93;4.55;;;;;;;15.31;76.58;99720.94;4468231;32;35322;-70
2022/05/18 02:22:11;;;;;;;7.30;4.40;;;;;;;15.78;73.45;99719.84;4469865;32;33541;-74
2022/05/18 02:24:39;;;;;;;10.75;4.12;;;;;;;16.07;71.07;99726.94;4454590;32;34591;-70
2022/05/18 02:27:07;;;;;;;7.32;4.68;;;;;;;16.08;70.91;99724.28;4457526;32;35024;-69
2022/05/18 02:29:35;;;;;;;7.43;4.40;;;;;;;16.36;69.54;99728.78;4441770;32;34552;-69
2022/05/18 02:32:03;;;;;;;8.82;4.70;;;;;;;15.55;72.64;99729.13;4455811;32;33295;-69
2022/05/18 02:34:31;;;;;;;9.35;4.85;;;;;;;16.11;70.08;99739.97;4468525;32;35008;-69
2022/05/18 02:36:59;;;;;;;10.32;4.97;;;;;;;15.23;73.74;99749.16;4461761;32;35215;-70
2022/05/18 02:39:27;;;;;;;10.32;4.82;;;;;;;15.36;71.73;99745.31;4465128;32;34577;-70
2022/05/18 02:41:55;;;;;;;10.45;5.50;;;;;;;15.36;72.63;99745.31;4463840;32;33505;-70
2022/05/18 02:44:24;;;;;;;7.12;5.15;;;;;;;15.06;72.93;99751.28;4464719;32;34825;-70
2022/05/18 02:46:57;;;;;;;10.95;5.60;;;;;;;14.95;73.65;99746.28;4469576;32;34983;-70
2022/05/18 02:49:26;;;;;;;9.20;4.97;;;;;;;15.00;72.94;99751.41;4454888;32;34497;-70
2022/05/18 02:51:54;;;;;;;8.13;4.87;;;;;;;15.30;72.11;99758.59;4469580;32;33744;-69
2022/05/18 02:57:09;;;;;;;6.70;4.32;;;;;;;14.68;73.00;99769.56;4457848;32;35092;-69
2022/05/18 02:59:38;;;;;;;6.68;4.80;;;;;;;15.39;69.34;99769.75;4465345;32;34517;-69
2022/05/18 03:02:06;;;;;;;7.65;5.10;;;;;;;14.65;71.01;99769.62;4455577;32;33568;-69
2022/05/18 03:04:34;;;;;;;7.12;4.82;;;;;;;14.65;71.43;99772.25;4467913;32;34803;-69
2022/05/18 03:07:02;;;;;;;7.97;4.53;;;;;;;14.41;72.26;99777.03;4469139;32;35060;-70
2022/05/18 03:09:30;;;;;;;9.90;4.35;;;;;;;14.58;70.65;99778.53;4448892;32;35208;-69
2022/05/18 03:11:58;;;;;;;11.63;5.45;;;;;;;14.04;72.48;99779.50;4440323;32;34313;-70
2022/05/18 03:14:26;;;;;;;8.32;5.50;;;;;;;13.60;74.20;99779.34;4449701;32;32440;-70
2022/05/18 03:16:54;;;;;;;7.82;5.00;;;;;;;14.23;71.60;99780.87;4454997;32;34264;-69
2022/05/18 03:19:23;;;;;;;9.65;5.20;;;;;;;13.97;73.29;99788.34;4452848;32;34431;-70
2022/05/18 03:24:38;;;;;;;8.15;4.28;;;;;;;14.27;70.83;99799.16;4456156;32;33939;-70
2022/05/18 03:27:06;;;;;;;6.87;4.57;;;;;;;13.63;73.36;99812.47;4439536;32;35075;-77
2022/05/18 03:29:34;;;;;;;16.62;6.53;;;;;;;13.79;72.14;99811.31;4447082;32;34425;-71
2022/05/18 03:32:03;;;;;;;7.35;4.43;;;;;;;14.03;71.33;99817.91;4452120;32;34423;-70
2022/05/18 03:34:33;;;;;;;7.72;4.85;;;;;;;13.77;72.27;99828.81;4453681;32;33928;-70
2022/05/18 03:37:01;;;;;;;8.30;4.97;;;;;;;12.61;76.43;99832.06;4469101;32;36419;-69
2022/05/18 03:39:30;;;;;;;8.52;3.87;;;;;;;13.69;72.72;99830.66;4453530;32;34527;-69
2022/05/18 03:41:58;;;;;;;8.80;4.60;;;;;;;14.25;69.88;99840.25;4468860;32;34485;-70
2022/05/18 03:44:25;;;;;;;7.53;4.37;;;;;;;13.93;71.50;99839.03;4467744;32;33910;-71
2022/05/18 03:46:53;;;;;;;8.48;4.68;;;;;;;14.19;70.05;99842.06;4457894;32;34818;-77
2022/05/18 03:49:21;;;;;;;7.20;4.32;;;;;;;14.00;70.39;99854.63;4461115;32;34591;-69
2022/05/18 03:51:49;;;;;;;6.97;4.87;;;;;;;13.95;71.24;99855.59;4468736;32;34319;-70
2022/05/18 03:54:18;;;;;;;6.80;4.50;;;;;;;13.99;73.22;99855.53;4455360;32;33845;-69
2022/05/18 03:56:46;;;;;;;7.75;4.68;;;;;;;14.17;71.94;99866.53;4462939;32;35776;-81
2022/05/18 03:59:13;;;;;;;7.70;4.57;;;;;;;13.65;73.35;99866.50;4455323;32;34629;-71
2022/05/18 04:01:42;;;;;;;8.63;5.22;;;;;;;13.23;76.53;99874.00;4467876;32;33461;-71
2022/05/18 04:04:10;;;;;;;8.18;4.95;;;;;;;13.77;74.67;99870.69;4461586;32;33791;-77
2022/05/18 04:06:38;;;;;;;7.05;4.28;;;;;;;14.60;71.16;99877.16;4456943;32;35896;-81
2022/05/18 04:09:06;;;;;;;11.75;5.50;;;;;;;14.50;72.38;99875.56;4469874;32;35232;-81
2022/05/18 04:11:34;;;;;;;7.40;4.78;;;;;;;14.42;73.98;99885.34;4470880;32;34302;-81
2022/05/18 04:14:02;;;;;;;6.60;4.90;;;;;;;15.10;72.06;99889.31;4469429;32;33947;-81
2022/05/18 04:16:30;;;;;;;7.25;4.25;;;;;;;14.12;75.67;99887.59;4470785;32;34949;-70
2022/05/18 04:18:58;;;;;;;9.43;4.57;;;;;;;15.01;72.25;99897.38;4467184;32;34342;-70
2022/05/18 04:21:26;;;;;;;13.85;4.62;;;;;;;14.85;72.03;99896.81;4442651;32;32353;-73
2022/05/18 04:23:55;;;;;;;10.45;4.68;;;;;;;15.32;70.90;99911.59;4445448;32;33914;-74
2022/05/18 04:26:23;;;;;;;10.05;4.72;;;;;;;15.09;72.56;99909.44;4470742;32;35260;-80
2022/05/18 04:28:51;;;;;;;9.50;3.97;;;;;;;15.24;73.07;99913.50;4455333;32;34437;-70
2022/05/18 04:31:19;;;;;;;7.53;4.22;;;;;;;15.28;73.77;99928.31;4469152;32;34604;-74
2022/05/18 04:33:47;;;;;;;8.38;5.10;;;;;;;15.96;72.66;99924.22;4469577;32;34008;-69
2022/05/18 04:36:15;;;;;;;9.73;5.10;;;;;;;16.45;69.48;99923.03;4448667;32;35135;-69
2022/05/18 04:38:43;;;;;;;9.30;5.37;;;;;;;17.05;67.68;99931.13;4443206;32;35176;-70
2022/05/18 04:41:11;;;;;;;8.68;5.35;;;;;;;16.89;68.12;99935.06;4470480;32;33075;-79
2022/05/18 04:43:39;;;;;;;10.18;5.60;;;;;;;17.18;65.49;99940.37;4469450;32;33721;-74
2022/05/18 04:46:07;;;;;;;8.65;5.60;;;;;;;17.35;65.56;99939.06;4456378;32;33673;-70
2022/05/18 04:48:36;;;;;;;8.80;5.25;;;;;;;16.84;67.76;99935.19;4455352;32;34495;-70
2022/05/18 04:51:05;;;;;;;7.57;4.70;;;;;;;17.52;65.41;99943.81;4454423;32;33537;-70
2022/05/18 04:53:34;;;;;;;8.48;5.12;;;;;;;17.51;64.55;99937.69;4447303;32;32842;-79
2022/05/18 04:56:04;;;;;;;8.95;5.25;;;;;;;17.44;64.31;99941.41;4456827;32;34539;-71
2022/05/18 04:58:33;;;;;;;8.63;5.60;;;;;;;16.99;66.94;99944.44;4446467;32;34420;-72
2022/05/18 05:01:07;;;;;;;7.95;4.40;;;;;;;17.56;63.30;99962.13;4441288;32;32004;-72
2022/05/18 05:03:35;;;;;;;8.75;3.70;;;;;;;17.88;63.14;99957.69;4454055;32;34813;-71
2022/05/18 05:06:05;;;;;;;5.72;3.75;;;;;;;18.15;60.51;99965.63;4453897;32;35865;-71
2022/05/18 05:08:36;;;;;;;5.53;3.33;;;;;;;18.72;58.92;99972.53;4446237;32;34391;-71
2022/05/18 05:11:05;;;;;;;5.78;3.60;;;;;;;18.90;57.80;99975.47;4455619;32;34258;-70
2022/05/18 05:13:34;;;;;;;7.95;3.97;;;;;;;18.68;59.74;99975.31;4441679;32;34826;-71
2022/05/18 05:16:05;;;;;;;7.53;3.70;;;;;;;19.10;58.00;99978.28;4456524;32;35004;-73
2022/05/18 05:18:33;;;;;;;7.05;3.85;;;;;;;18.40;59.31;99980.66;4468936;32;34342;-73
2022/05/18 05:21:01;;;;;;;5.12;3.28;;;;;;;18.83;57.20;99989.78;4470545;32;33685;-73
2022/05/18 05:23:29;;;;;;;6.60;3.95;;;;;;;17.83;60.57;99996.44;4459556;32;33845;-72
2022/05/18 05:25:59;;;;;;;6.72;3.33;;;;;;;18.73;57.75;100000.63;4457173;32;35881;-83
2022/05/18 05:28:27;;;;;;;9.20;3.75;;;;;;;18.59;57.00;100002.00;4440109;32;34670;-76
2022/05/18 05:31:04;;;;;;;5.78;3.50;;;;;;;17.91;60.20;100012.03;4454533;32;33521;-78
2022/05/18 05:33:33;;;;;;;5.62;2.83;;;;;;;18.77;56.83;100017.22;4440130;32;34787;-81
2022/05/18 05:36:01;;;;;;;11.18;3.55;;;;;;;18.13;57.03;100009.63;4470390;32;35909;-82
2022/05/18 05:38:29;;;;;;;4.97;2.70;;;;;;;17.14;60.30;100022.09;4461127;32;34420;-78
2022/05/18 05:41:00;;;;;;;8.13;3.10;;;;;;;17.26;59.49;100027.03;4454654;32;34230;-83
2022/05/18 05:43:31;;;;;;;6.95;2.22;;;;;;;17.47;59.25;100030.84;4453007;32;34012;-76
2022/05/18 05:46:03;;;;;;;4.55;2.22;;;;;;;18.03;53.84;100032.75;4456303;32;35101;-82
2022/05/18 05:48:33;;;;;;;8.18;1.92;;;;;;;17.93;53.87;100045.34;4467387;32;34495;-77
2022/05/18 05:51:03;;;;;;;4.12;2.35;;;;;;;17.87;50.05;100060.47;4445434;32;33025;-83
2022/05/18 05:53:32;;;;;;;2.95;1.58;;;;;;;18.83;45.16;100063.66;4454100;32;34046;-76
2022/05/18 05:56:01;;;;;;;3.50;2.00;;;;;;;18.63;46.96;100064.28;4469831;32;35645;-84
2022/05/18 05:58:33;;;;;;;6.07;2.10;;;;;;;18.17;47.27;100074.50;4469821;32;35276;-76
2022/05/18 06:01:04;;;;;;;3.83;2.10;;;;;;;18.29;46.87;100068.00;4470101;32;33686;-72
2022/05/18 06:03:33;;;;;;;7.40;2.20;;;;;;;19.29;46.12;100072.69;4470347;32;34635;-73
2022/05/18 06:06:03;;;;;;;4.97;2.10;;;;;;;18.92;49.87;100079.22;4452007;32;34690;-71
2022/05/18 06:08:32;;;;;;;7.40;2.05;;;;;;;19.49;46.92;100093.94;4441005;32;35311;-71
2022/05/18 06:11:00;;;;;;;2.83;1.70;;;;;;;19.75;43.31;100094.84;4452521;32;34343;-71
2022/05/18 06:13:29;;;;;;;8.85;3.03;;;;;;;19.96;41.75;100097.59;4440818;32;34575;-72
2022/05/18 06:15:57;;;;;;;6.03;3.12;;;;;;;20.16;42.87;100105.66;4454155;32;35120;-71
2022/05/18 06:18:26;;;;;;;5.32;2.25;;;;;;;19.24;43.77;100101.03;4470173;32;34495;-72
2022/05/18 06:20:54;;;;;;;3.15;1.80;;;;;;;20.44;44.28;100109.88;4454804;32;33322;-71
2022/05/18 06:23:22;;;;;;;6.15;2.12;;;;;;;20.06;40.53;100113.03;4468698;32;33943;-70
2022/05/18 06:25:50;;;;;;;6.00;2.37;;;;;;;19.63;42.53;100119.03;4441325;32;33625;-73
2022/05/18 06:28:18;;;;;;;5.68;2.28;;;;;;;19.97;40.35;100117.84;4469958;32;34411;-73
2022/05/18 06:30:46;;;;;;;5.28;1.95;;;;;;;19.78;40.66;100123.78;4468245;32;34152;-72
2022/05/18 06:33:14;;;;;;;3.83;1.90;;;;;;;20.21;40.19;100127.50;4456217;32;34056;-72
2022/05/18 06:35:44;;;;;;;3.15;1.87;;;;;;;20.41;38.68;100128.50;4468668;32;34980;-71
2022/05/18 06:38:14;;;;;;;3.33;1.77;;;;;;;20.44;38.72;100125.75;4469920;32;34530;-72
2022/05/18 06:43:29;;;;;;;2.75;1.65;;;;;;;20.50;41.40;100144.00;4442192;32;33820;-70
2022/05/18 06:45:58;;;;;;;4.72;2.12;;;;;;;20.53;37.31;100141.25;4467021;32;35998;-70
2022/05/18 06:48:26;;;;;;;4.80;2.05;;;;;;;19.66;38.55;100150.62;4469790;32;34484;-70
2022/05/18 06:51:20;;;;;;;5.70;2.17;;;;;;;19.95;40.28;100151.41;4468821;32;33479;-71
2022/05/18 06:53:51;;;;;;;5.03;1.85;;;;;;;19.96;41.72;100163.69;4442386;32;33602;-70
2022/05/18 06:56:22;;;;;;;4.35;2.08;;;;;;;20.27;39.57;100158.97;4442885;32;35871;-72
2022/05/18 06:58:50;;;;;;;6.35;2.28;;;;;;;21.06;39.51;100173.63;4439649;32;35150;-72
2022/05/18 07:01:19;;;;;;;3.25;2.12;;;;;;;20.75;40.51;100169.56;4453842;32;33949;-73
2022/05/18 07:03:48;;;;;;;5.00;1.90;;;;;;;20.76;38.33;100176.59;4440251;32;34220;-71
2022/05/18 07:06:19;;;;;;;6.50;1.80;;;;;;;20.83;40.51;100186.00;4468124;32;34819;-72
2022/05/18 07:08:48;;;;;;;4.28;1.60;;;;;;;21.03;38.73;100187.84;4469882;32;35257;-72
2022/05/18 07:11:16;;;;;;;4.75;1.83;;;;;;;21.11;38.97;100192.84;4448826;32;32039;-71
2022/05/18 07:13:46;;;;;;;3.92;1.77;;;;;;;21.37;37.72;100200.56;4439521;32;34164;-71
2022/05/18 07:16:14;;;;;;;7.10;2.08;;;;;;;20.91;38.83;100202.47;4450660;32;34154;-71
2022/05/18 07:18:42;;;;;;;3.92;1.87;;;;;;;20.90;37.71;100203.37;4453833;32;35110;-71
2022/05/18 07:21:09;;;;;;;2.85;1.85;;;;;;;21.36;37.47;100205.94;4466229;32;33586;-71
2022/05/18 07:23:38;;;;;;;4.15;1.80;;;;;;;20.86;37.24;100208.81;4467880;32;34726;-71
2022/05/18 07:26:06;;;;;;;6.75;1.87;;;;;;;21.71;36.29;100204.47;4466592;32;35177;-71
2022/05/18 07:28:34;;;;;;;4.85;1.70;;;;;;;22.12;35.37;100216.84;4427865;32;34048;-71
2022/05/18 07:31:02;;;;;;;5.78;1.70;;;;;;;21.96;35.92;100214.03;4449524;32;31922;-72
2022/05/18 07:33:30;;;;;;;2.97;1.60;;;;;;;21.47;37.90;100221.41;4455766;32;34054;-71
2022/05/18 07:35:59;;;;;;;4.87;1.90;;;;;;;21.49;39.64;100216.91;4467109;32;35043;-70
2022/05/18 07:38:30;;;;;;;4.72;2.10;;;;;;;21.36;37.83;100220.03;4471354;32;34664;-71
2022/05/18 07:41:08;;;;;;;5.97;2.03;;;;;;;21.44;37.93;100227.66;4469671;32;33419;-71
2022/05/18 07:43:37;;;;;;;4.18;1.80;;;;;;;20.78;38.09;100225.03;4471318;32;34282;-70
2022/05/18 07:46:06;;;;;;;4.55;1.90;;;;;;;21.04;37.29;100225.78;4469557;32;35900;-70
2022/05/18 07:48:35;;;;;;;3.95;1.67;;;;;;;22.69;34.13;100219.59;4443096;32;35363;-70
2022/05/18 07:51:03;;;;;;;8.38;1.98;;;;;;;21.22;41.38;100227.69;4466811;32;34443;-70
2022/05/18 07:53:31;;;;;;;3.92;1.70;;;;;;;22.38;38.88;100230.75;4471229;32;34880;-70
2022/05/18 07:55:59;;;;;;;6.00;2.05;;;;;;;22.63;35.14;100230.50;4455694;32;35790;-72
2022/05/18 07:58:28;;;;;;;5.18;2.40;;;;;;;22.53;35.67;100233.56;4457231;32;34691;-73
2022/05/18 08:00:56;;;;;;;2.58;1.60;;;;;;;21.59;35.92;100242.09;4462915;32;33536;-70
2022/05/18 08:03:25;;;;;;;8.07;2.03;;;;;;;21.74;35.27;100244.13;4455795;32;34663;-68
2022/05/18 08:05:53;;;;;;;2.85;1.62;;;;;;;22.44;36.54;100247.25;4464959;32;35147;-70
2022/05/18 08:08:21;;;;;;;4.53;2.22;;;;;;;21.98;36.32;100249.28;4471183;32;34298;-69
2022/05/18 08:16:25;;;;;;;5.82;2.10;;;;;;;20.70;38.84;100256.19;4469450;32;35145;-71
2022/05/18 08:19:06;;;;;;;6.12;2.37;;;;;;;20.85;35.13;100260.06;4469768;32;34329;-69
2022/05/18 08:21:39;;;;;;;6.10;1.77;;;;;;;21.11;35.22;100273.16;4469607;32;33444;-70
2022/05/18 08:24:13;;;;;;;3.28;1.70;;;;;;;21.94;34.78;100274.22;4467605;32;33792;-69
2022/05/18 08:26:42;;;;;;;5.65;1.80;;;;;;;20.71;36.36;100274.69;4456298;32;33819;-69
2022/05/18 08:29:10;;;;;;;4.82;2.12;;;;;;;21.10;37.28;100273.22;4443410;32;32438;-69
2022/05/18 08:31:38;;;;;;;5.18;2.10;;;;;;;21.47;34.23;100285.00;4468983;32;33459;-69
2022/05/18 08:34:06;;;;;;;3.60;2.10;;;;;;;20.32;35.74;100279.62;4465045;32;34844;-71
2022/05/18 08:36:34;;;;;;;3.50;1.98;;;;;;;20.98;37.58;100282.47;4468322;32;35993;-69
2022/05/18 08:39:02;;;;;;;4.20;1.92;;;;;;;20.87;37.27;100285.53;4470279;32;34513;-69
2022/05/18 08:41:37;;;;;;;3.58;1.73;;;;;;;21.12;35.35;100289.91;4462712;32;34601;-70
2022/05/18 08:44:07;;;;;;;3.20;2.03;;;;;;;21.48;37.31;100292.91;4441485;32;33943;-70
2022/05/18 08:47:02;;;;;;;3.87;2.05;;;;;;;21.07;40.61;100286.56;4453514;32;35285;-69
2022/05/18 08:49:51;;;;;;;5.80;2.05;;;;;;;21.72;37.01;100291.00;4454791;32;35330;-70
2022/05/18 08:52:54;;;;;;;2.85;1.87;;;;;;;22.67;36.46;100287.84;4441516;32;34109;-71
2022/05/18 08:55:53;;;;;;;2.47;1.60;;;;;;;21.81;37.05;100294.22;4460323;32;33969;-70
2022/05/18 08:58:38;;;;;;;3.70;2.00;;;;;;;23.26;33.61;100299.28;4449649;32;35842;-70
2022/05/18 09:01:12;;;;;;;3.45;1.65;;;;;;;21.99;36.36;100303.19;4452855;32;34423;-70
2022/05/18 09:03:44;;;;;;;4.43;1.90;;;;;;;22.08;39.55;100297.50;4454886;32;33893;-71
2022/05/18 09:06:40;;;;;;;3.78;2.00;;;;;;;21.89;39.14;100313.31;4441216;32;34033;-70
2022/05/18 09:12:05;;;;;;;2.03;1.52;;;;;;;24.01;34.31;100303.53;4430475;32;34593;-70
2022/05/18 09:14:37;;;;;;;5.32;1.70;;;;;;;23.95;34.14;100303.88;4450086;32;33513;-70
2022/05/18 09:17:25;;;;;;;2.78;1.58;;;;;;;23.49;32.94;100308.81;4454892;32;34906;-70
2022/05/18 09:20:03;;;;;;;6.97;2.15;;;;;;;22.53;34.81;100309.69;4455872;32;35977;-70
2022/05/18 09:23:07;;;;;;;4.43;1.77;;;;;;;22.15;33.50;100322.84;4448395;32;34345;-69
2022/05/18 09:25:56;;;;;;;2.97;1.60;;;;;;;22.38;31.65;100313.00;4460371;32;33342;-70
2022/05/18 09:28:49;;;;;;;3.67;1.52;;;;;;;23.84;30.64;100308.84;4454654;32;33512;-70
2022/05/18 09:31:43;;;;;;;4.68;1.65;;;;;;;24.13;30.98;100311.84;4441546;32;34232;-69
2022/05/18 09:34:20;;;;;;;5.07;1.45;;;;;;;22.25;32.37;100317.97;4470510;32;34438;-70
2022/05/18 09:37:20;;;;;;;4.65;1.60;;;;;;;21.87;36.07;100315.19;4440022;32;33651;-70
2022/05/18 09:40:00;;;;;;;3.15;1.42;;;;;;;23.16;33.29;100314.78;4468804;32;33840;-72
2022/05/18 09:42:33;;;;;;;2.47;1.40;;;;;;;23.16;30.26;100325.44;4456584;32;35003;-70
2022/05/18 09:45:12;;;;;;;4.00;1.25;;;;;;;22.51;29.02;100322.16;4442074;32;33615;-70
2022/05/18 09:47:46;;;;;;;3.40;1.30;;;;;;;23.24;32.36;100328.59;4445807;32;34402;-70
2022/05/18 09:50:14;;;;;;;2.50;1.35;;;;;;;22.76;30.33;100332.53;4443080;32;33960;-70
2022/05/18 09:52:44;;;;;;;4.05;1.40;;;;;;;23.87;30.61;100329.13;4470174;32;35777;-71
2022/05/18 09:55:16;;;;;;;4.32;1.10;;;;;;;23.75;28.72;100327.91;4451402;32;34399;-71
2022/05/18 09:57:55;;;;;;;4.80;1.58;;;;;;;24.70;27.29;100324.87;4446746;32;34211;-71
2022/05/18 10:00:33;;;;;;;3.15;1.20;;;;;;;23.80;27.85;100321.44;4432378;32;33107;-72
2022/05/18 10:08:57;;;;;;;3.70;1.48;;;;;;;23.77;31.73;100342.00;4443811;32;32778;-72
2022/05/18 10:11:34;;;;;;;3.00;1.40;;;;;;;23.81;27.98;100338.28;4457407;32;33857;-71
2022/05/18 10:14:26;;;;;;;2.95;1.20;;;;;;;24.54;32.18;100332.81;4449454;32;35018;-71
2022/05/18 10:17:09;;;;;;;2.05;1.12;;;;;;;23.34;30.81;100328.16;4468711;32;34072;-72
2022/05/18 10:19:45;;;;;;;1.52;1.00;;;;;;;24.37;28.23;100333.66;4442428;32;31871;-70
2022/05/18 10:22:20;;;;;;;4.20;1.45;;;;;;;23.76;26.70;100329.66;4442270;32;33209;-72
2022/05/18 10:24:51;;;;;;;4.12;1.20;;;;;;;24.35;29.52;100325.75;4437893;32;176270;-70
2022/05/18 10:27:31;;;;;;;2.42;1.37;;;;;;;23.96;27.91;100326.84;4469142;32;34628;-71
2022/05/18 10:30:15;;;;;;;4.10;1.10;;;;;;;23.76;26.87;100317.19;4454418;32;33618;-72
2022/05/18 10:32:58;;;;;;;2.22;1.30;;;;;;;24.90;27.39;100319.31;4427213;32;33932;-73
2022/05/18 10:35:50;;;;;;;1.85;1.17;;;;;;;24.68;27.12;100321.44;4447947;32;35560;-73
2022/05/18 10:38:27;;;;;;;6.22;2.00;;;;;;;24.17;32.51;100313.41;4456197;32;34309;-71
2022/05/18 10:41:17;;;;;;;4.10;1.62;;;;;;;23.75;26.11;100311.94;4449754;32;34190;-71
2022/05/18 10:43:59;;;;;;;2.45;1.40;;;;;;;24.19;27.11;100308.88;4427229;32;33952;-72
2022/05/18 10:46:34;;;;;;;2.10;1.30;;;;;;;25.63;26.98;100313.47;4453238;32;34948;-72
2022/05/18 10:49:08;;;;;;;4.57;1.20;;;;;;;25.49;23.42;100310.75;4454233;32;35208;-72
2022/05/18 10:51:36;;;;;;;4.20;1.42;;;;;;;25.69;25.55;100313.12;4433212;32;33541;-71
2022/05/18 10:54:25;;;;;;;4.00;1.37;;;;;;;24.51;24.75;100308.97;4454208;32;34087;-72
2022/05/18 10:57:09;;;;;;;3.15;1.20;;;;;;;23.22;25.13;100316.28;4441757;32;35747;-72
2022/05/18 10:59:49;;;;;;;3.30;1.30;;;;;;;24.31;22.68;100307.38;4453734;32;34056;-71
2022/05/18 11:02:42;;;;;;;2.75;1.10;;;;;;;24.58;22.64;100307.72;4452978;32;34143;-72
2022/05/18 11:05:54;;;;;;;3.50;1.55;;;;;;;23.96;22.43;100300.25;4457538;32;34055;-72
2022/05/18 11:08:25;;;;;;;2.33;1.15;;;;;;;24.21;22.08;100310.53;4393281;32;34237;-72
2022/05/18 11:11:14;;;;;;;2.70;1.27;;;;;;;24.56;22.28;100312.28;4403097;32;34399;-72
2022/05/18 11:13:54;;;;;;;5.18;1.45;;;;;;;24.62;21.02;100314.63;4438460;32;33308;-71
2022/05/18 11:16:46;;;;;;;2.55;1.08;;;;;;;24.28;22.73;100315.50;4460841;32;34783;-72
2022/05/18 11:19:22;;;;;;;3.00;1.00;;;;;;;25.07;19.58;100309.53;4461385;32;34501;-72
2022/05/18 11:22:13;;;;;;;3.20;1.12;;;;;;;24.70;20.13;100317.72;4464557;32;34623;-71
2022/05/18 11:24:45;;;;;;;3.90;1.42;;;;;;;24.93;21.20;100307.63;4455229;32;34389;-70
2022/05/18 11:27:45;;;;;;;3.42;1.17;;;;;;;23.96;21.19;100305.56;4453309;32;32832;-70
2022/05/18 11:30:39;;;;;;;2.60;1.40;;;;;;;24.30;21.06;100293.22;4448216;32;35809;-70
2022/05/18 11:33:19;;;;;;;3.72;1.50;;;;;;;23.30;23.01;100292.88;4439132;32;34417;-72
2022/05/18 11:35:53;;;;;;;2.95;1.40;;;;;;;24.33;22.76;100297.50;4454503;32;33545;-71
2022/05/18 11:39:06;;;;;;;1.17;1.02;;;;;;;24.36;23.07;100303.53;4469166;32;33983;-72
2022/05/18 11:41:38;;;;;;;2.90;1.80;;;;;;;23.40;22.16;100301.25;4452905;32;35063;-71
2022/05/18 11:44:18;;;;;;;3.83;1.23;;;;;;;24.30;20.01;100298.53;4469212;32;34435;-71
2022/05/18 11:46:53;;;;;;;1.50;1.00;;;;;;;24.46;18.99;100293.25;4467780;32;32959;-71
2022/05/18 11:49:34;;;;;;;2.00;1.20;;;;;;;24.06;19.12;100290.00;4455281;32;34385;-70
2022/05/18 11:52:40;;;;;;;3.80;1.20;;;;;;;23.72;24.40;100282.84;4453873;32;35022;-70
2022/05/18 11:55:36;;;;;;;6.72;1.30;;;;;;;23.84;23.22;100284.91;4460972;32;35179;-70
2022/05/18 11:58:53;;;;;;;4.90;1.10;;;;;;;24.35;19.26;100290.28;4453384;32;33552;-70
2022/05/18 12:01:53;;;;;;;2.87;1.20;;;;;;;24.75;19.18;100294.37;4445715;32;33851;-70
2022/05/18 12:04:57;;;;;;;1.50;0.93;;;;;;;24.08;21.74;100292.59;4457982;32;35680;-70
2022/05/18 12:08:10;;;;;;;1.05;0.90;;;;;;;24.57;20.87;100296.22;4459702;32;34129;-70
2022/05/18 12:10:49;;;;;;;2.35;0.90;;;;;;;23.50;24.84;100289.25;4467604;32;34208;-70
2022/05/18 12:13:32;;;;;;;3.30;1.05;;;;;;;24.42;19.42;100294.34;4443499;32;34742;-70
2022/05/18 12:16:10;;;;;;;1.87;0.80;;;;;;;24.46;20.20;100295.91;4458132;32;35067;-70
2022/05/18 12:19:10;;;;;;;3.45;1.10;;;;;;;25.00;20.22;100295.69;4451113;32;35310;-70
2022/05/18 12:21:45;;;;;;;4.80;1.05;;;;;;;24.16;19.75;100301.03;4435934;32;33755;-70